Time;durP1;ratioP1;P1;durP2;ratioP2;P2;SDS_P1;SDS_P2;PMS_P1;PMS_P2;Temp;Humidity;BMP_temperature;BMP_pressure;BME280_temperature;BME280_humidity;BME280_pressure;Samples;Min_cycle;Max_cycle;Signal;HPM_P1;HPM_P2
2023/12/18 00:00:57;;;;;;;34.33;22.37;;;;;;;;;;5013523;28;20520;-39
2023/12/18 00:03:25;;;;;;;29.53;22.53;;;;;;;;;;5012934;28;20492;-39
2023/12/18 00:05:52;;;;;;;41.40;23.50;;;;;;;;;;5013430;28;20483;-39
2023/12/18 00:08:21;;;;;;;44.83;23.60;;;;;;;;;;5013017;28;20975;-38
2023/12/18 00:10:49;;;;;;;32.63;22.13;;;;;;;;;;5013724;28;20527;-40
2023/12/18 00:13:17;;;;;;;40.37;22.43;;;;;;;;;;5013448;28;20492;-39
2023/12/18 00:15:44;;;;;;;37.60;22.00;;;;;;;;;;5013337;28;20473;-39
2023/12/18 00:18:12;;;;;;;42.30;24.70;;;;;;;;;;5013353;28;20460;-40
2023/12/18 00:20:40;;;;;;;34.47;22.10;;;;;;;;;;5013586;28;20448;-40
2023/12/18 00:23:07;;;;;;;38.83;24.23;;;;;;;;;;5013324;28;20476;-38
2023/12/18 00:25:38;;;;;;;43.57;22.13;;;;;;;;;;5013088;28;20436;-40
2023/12/18 00:28:06;;;;;;;31.30;24.40;;;;;;;;;;5012909;28;20485;-39
2023/12/18 00:30:33;;;;;;;37.43;21.83;;;;;;;;;;5013446;28;20441;-39
2023/12/18 00:33:01;;;;;;;35.80;21.40;;;;;;;;;;5013377;28;20437;-39
2023/12/18 00:35:29;;;;;;;44.13;23.17;;;;;;;;;;5013215;28;20480;-40
2023/12/18 00:37:57;;;;;;;26.50;21.03;;;;;;;;;;5012815;28;20453;-39
2023/12/18 00:40:24;;;;;;;32.40;20.77;;;;;;;;;;5013602;28;20544;-39
2023/12/18 00:42:53;;;;;;;36.93;22.50;;;;;;;;;;5013062;28;20443;-40
2023/12/18 00:45:21;;;;;;;32.13;22.83;;;;;;;;;;5013048;28;20445;-40
2023/12/18 00:47:48;;;;;;;38.80;22.03;;;;;;;;;;5012550;28;20806;-38
2023/12/18 00:50:16;;;;;;;32.20;22.47;;;;;;;;;;5012761;28;20507;-40
2023/12/18 00:52:43;;;;;;;32.47;22.30;;;;;;;;;;5012884;28;20465;-39
2023/12/18 00:55:11;;;;;;;35.67;20.60;;;;;;;;;;5012721;28;20542;-39
2023/12/18 00:57:39;;;;;;;33.30;22.07;;;;;;;;;;5012772;28;20476;-42
2023/12/18 01:00:09;;;;;;;30.90;20.03;;;;;;;;;;5012492;28;20460;-40
2023/12/18 01:02:37;;;;;;;24.67;20.67;;;;;;;;;;5012689;28;20491;-39
2023/12/18 01:05:05;;;;;;;38.33;21.10;;;;;;;;;;5012648;28;20801;-42
2023/12/18 01:07:32;;;;;;;40.63;20.63;;;;;;;;;;5012217;28;20453;-40
2023/12/18 01:10:00;;;;;;;25.53;21.23;;;;;;;;;;5012302;28;20511;-38
2023/12/18 01:12:27;;;;;;;36.00;22.37;;;;;;;;;;5012789;28;20964;-39
2023/12/18 01:14:55;;;;;;;35.80;22.37;;;;;;;;;;5012297;28;20433;-39
2023/12/18 01:17:24;;;;;;;26.97;22.90;;;;;;;;;;5011920;28;20516;-42
2023/12/18 01:20:02;;;;;;;32.80;21.10;;;;;;;;;;5011833;28;20509;-39
2023/12/18 01:22:30;;;;;;;33.33;22.27;;;;;;;;;;5012570;28;20444;-40
2023/12/18 01:24:58;;;;;;;31.07;23.30;;;;;;;;;;5012511;28;20449;-41
2023/12/18 01:27:25;;;;;;;41.33;23.57;;;;;;;;;;5012259;28;20900;-39
2023/12/18 01:29:53;;;;;;;36.90;21.80;;;;;;;;;;5011967;28;20467;-39
2023/12/18 01:32:21;;;;;;;34.67;21.13;;;;;;;;;;5012056;28;20459;-39
2023/12/18 01:34:50;;;;;;;34.10;22.50;;;;;;;;;;5012077;28;20433;-38
2023/12/18 01:37:17;;;;;;;31.17;23.80;;;;;;;;;;5011787;28;21118;-39
2023/12/18 01:39:45;;;;;;;44.43;21.70;;;;;;;;;;5011712;28;20898;-39
2023/12/18 01:42:13;;;;;;;33.87;23.10;;;;;;;;;;5012225;28;21051;-38
2023/12/18 01:44:40;;;;;;;29.60;22.07;;;;;;;;;;5011894;28;20445;-39
2023/12/18 01:47:08;;;;;;;36.43;21.47;;;;;;;;;;5011675;28;20453;-39
2023/12/18 01:49:36;;;;;;;39.30;22.13;;;;;;;;;;5011411;28;20467;-40
2023/12/18 01:52:06;;;;;;;40.63;22.80;;;;;;;;;;5011881;28;20444;-39
2023/12/18 01:54:34;;;;;;;23.33;20.27;;;;;;;;;;5011837;28;20524;-42
2023/12/18 01:57:03;;;;;;;31.87;20.73;;;;;;;;;;5011691;28;20481;-41
2023/12/18 01:59:32;;;;;;;29.20;21.00;;;;;;;;;;5011433;28;20980;-39
2023/12/18 02:01:59;;;;;;;28.30;20.67;;;;;;;;;;5011969;28;20460;-40
2023/12/18 02:04:27;;;;;;;45.90;21.20;;;;;;;;;;5011668;28;21004;-41
2023/12/18 02:06:55;;;;;;;32.17;21.10;;;;;;;;;;5011726;28;20828;-39
2023/12/18 02:09:24;;;;;;;30.50;20.40;;;;;;;;;;5011303;28;20762;-41
2023/12/18 02:11:52;;;;;;;33.17;20.40;;;;;;;;;;5011997;28;20452;-40
2023/12/18 02:14:19;;;;;;;27.00;19.57;;;;;;;;;;5011445;28;20455;-38
2023/12/18 02:16:47;;;;;;;21.63;19.33;;;;;;;;;;5011384;28;20547;-41
2023/12/18 02:19:24;;;;;;;38.00;19.60;;;;;;;;;;5011309;28;20456;-40
2023/12/18 02:21:52;;;;;;;24.70;19.77;;;;;;;;;;5011672;28;20436;-41
2023/12/18 02:24:21;;;;;;;28.23;20.47;;;;;;;;;;5011434;28;20491;-40
2023/12/18 02:26:49;;;;;;;29.17;21.83;;;;;;;;;;5015038;28;20502;-41
2023/12/18 02:29:17;;;;;;;23.30;20.47;;;;;;;;;;5015426;28;20463;-41
2023/12/18 02:31:44;;;;;;;30.07;20.83;;;;;;;;;;5015623;28;20468;-40
2023/12/18 02:34:12;;;;;;;36.70;19.97;;;;;;;;;;5011090;28;20442;-40
2023/12/18 02:36:40;;;;;;;35.93;21.40;;;;;;;;;;5014408;28;20480;-38
2023/12/18 02:39:07;;;;;;;30.93;21.83;;;;;;;;;;5015056;28;20463;-38
2023/12/18 02:41:36;;;;;;;33.90;19.73;;;;;;;;;;5015286;28;20433;-40
2023/12/18 02:44:04;;;;;;;32.90;21.20;;;;;;;;;;5015391;28;20433;-39
2023/12/18 02:46:32;;;;;;;33.53;22.17;;;;;;;;;;5014889;28;20544;-38
2023/12/18 02:48:59;;;;;;;24.23;20.30;;;;;;;;;;5014762;28;20491;-41
2023/12/18 02:51:27;;;;;;;27.60;20.20;;;;;;;;;;5015117;28;20441;-39
2023/12/18 02:53:55;;;;;;;23.83;19.80;;;;;;;;;;5015002;28;20440;-39
2023/12/18 02:56:23;;;;;;;31.60;21.67;;;;;;;;;;5014828;28;20496;-39
2023/12/18 02:58:52;;;;;;;29.77;21.13;;;;;;;;;;5014797;28;20479;-44
2023/12/18 03:01:19;;;;;;;34.37;21.40;;;;;;;;;;5015057;28;20525;-41
2023/12/18 03:03:47;;;;;;;26.83;20.93;;;;;;;;;;5015002;28;20469;-39
2023/12/18 03:06:15;;;;;;;26.47;21.07;;;;;;;;;;5014640;28;20461;-40
2023/12/18 03:08:42;;;;;;;43.70;21.70;;;;;;;;;;5014315;28;20500;-41
2023/12/18 03:11:10;;;;;;;26.00;20.80;;;;;;;;;;5014995;28;20484;-40
2023/12/18 03:13:38;;;;;;;31.17;19.50;;;;;;;;;;5014966;28;20572;-39
2023/12/18 03:16:08;;;;;;;31.37;20.57;;;;;;;;;;5014560;28;20861;-40
2023/12/18 03:18:35;;;;;;;34.00;21.40;;;;;;;;;;5014138;28;20461;-40
2023/12/18 03:21:03;;;;;;;26.10;21.17;;;;;;;;;;5014351;28;20440;-38
2023/12/18 03:23:31;;;;;;;32.27;20.80;;;;;;;;;;5014632;28;20928;-38
2023/12/18 03:25:58;;;;;;;39.30;22.33;;;;;;;;;;5014292;28;20436;-40
2023/12/18 03:28:26;;;;;;;33.53;20.90;;;;;;;;;;5013886;28;20484;-40
2023/12/18 03:30:53;;;;;;;30.93;21.37;;;;;;;;;;5014440;28;20468;-38
2023/12/18 03:33:22;;;;;;;31.10;20.57;;;;;;;;;;5014396;28;20876;-41
2023/12/18 03:35:50;;;;;;;26.43;21.63;;;;;;;;;;5013685;28;20480;-40
2023/12/18 03:38:17;;;;;;;32.53;21.27;;;;;;;;;;5013118;28;20483;-40
2023/12/18 03:40:45;;;;;;;31.80;20.90;;;;;;;;;;5014096;28;20971;-39
2023/12/18 03:43:13;;;;;;;28.57;21.80;;;;;;;;;;5014283;28;20499;-42
2023/12/18 03:45:40;;;;;;;32.60;21.93;;;;;;;;;;5013728;28;20433;-38
2023/12/18 03:48:08;;;;;;;26.17;21.23;;;;;;;;;;5013551;28;20515;-41
2023/12/18 03:50:37;;;;;;;30.67;22.50;;;;;;;;;;5014117;28;20483;-39
2023/12/18 03:53:04;;;;;;;27.83;21.23;;;;;;;;;;5014229;28;20562;-40
2023/12/18 03:55:32;;;;;;;38.97;21.90;;;;;;;;;;5013629;28;20618;-42
2023/12/18 03:57:59;;;;;;;32.23;21.30;;;;;;;;;;5013243;28;20515;-41
2023/12/18 04:00:27;;;;;;;27.50;20.60;;;;;;;;;;5013671;28;20519;-40
2023/12/18 04:02:55;;;;;;;26.93;22.53;;;;;;;;;;5014003;28;20441;-41
2023/12/18 04:05:24;;;;;;;30.40;21.43;;;;;;;;;;5013975;28;20790;-41
2023/12/18 04:07:53;;;;;;;30.63;20.70;;;;;;;;;;5013186;28;20985;-39
2023/12/18 04:10:20;;;;;;;33.77;21.23;;;;;;;;;;5013659;28;20975;-39
2023/12/18 04:12:48;;;;;;;24.13;21.57;;;;;;;;;;5013574;28;20469;-41
2023/12/18 04:15:16;;;;;;;32.47;22.10;;;;;;;;;;5013415;28;20441;-39
2023/12/18 04:17:43;;;;;;;27.80;21.80;;;;;;;;;;5013613;28;20539;-39
2023/12/18 04:20:11;;;;;;;29.90;21.57;;;;;;;;;;5013113;28;20461;-42
2023/12/18 04:22:39;;;;;;;30.00;21.10;;;;;;;;;;5013344;28;20475;-39
2023/12/18 04:25:08;;;;;;;34.00;22.40;;;;;;;;;;5013463;28;20495;-39
2023/12/18 04:27:36;;;;;;;31.70;22.63;;;;;;;;;;5012866;28;20460;-39
2023/12/18 04:30:04;;;;;;;28.73;21.40;;;;;;;;;;5013110;28;20463;-40
2023/12/18 04:32:31;;;;;;;33.77;23.30;;;;;;;;;;5013264;28;20442;-38
2023/12/18 04:34:59;;;;;;;26.23;21.40;;;;;;;;;;5013342;28;20465;-40
2023/12/18 04:37:27;;;;;;;32.37;21.40;;;;;;;;;;5012960;28;20876;-39
2023/12/18 04:39:54;;;;;;;28.97;20.10;;;;;;;;;;5012697;28;20519;-40
2023/12/18 04:42:23;;;;;;;31.37;20.97;;;;;;;;;;5012869;28;20495;-39
2023/12/18 04:44:51;;;;;;;38.57;23.57;;;;;;;;;;5013159;28;20433;-39
2023/12/18 04:47:18;;;;;;;30.40;21.47;;;;;;;;;;5012728;28;20488;-41
2023/12/18 04:49:47;;;;;;;38.67;22.63;;;;;;;;;;4996264;28;20545;-38
2023/12/18 04:52:14;;;;;;;42.13;23.97;;;;;;;;;;4993220;28;20655;-38
2023/12/18 04:54:42;;;;;;;32.80;21.77;;;;;;;;;;4993030;28;20438;-39
2023/12/18 04:57:10;;;;;;;38.37;23.23;;;;;;;;;;4993212;28;20838;-38
2023/12/18 04:59:39;;;;;;;23.60;20.67;;;;;;;;;;5007498;28;20545;-40
2023/12/18 05:02:06;;;;;;;23.10;20.63;;;;;;;;;;5011679;28;20480;-38
2023/12/18 05:04:34;;;;;;;32.70;20.20;;;;;;;;;;5015038;28;20895;-39
2023/12/18 05:07:02;;;;;;;30.53;21.47;;;;;;;;;;5014440;28;21092;-39
2023/12/18 05:09:30;;;;;;;35.47;23.17;;;;;;;;;;5001932;28;20484;-38
2023/12/18 05:11:57;;;;;;;24.67;20.07;;;;;;;;;;4997245;28;20813;-38
2023/12/18 05:14:25;;;;;;;26.70;20.67;;;;;;;;;;4996396;28;20429;-39
2023/12/18 05:16:54;;;;;;;29.20;20.67;;;;;;;;;;4997154;28;20485;-39
2023/12/18 05:19:22;;;;;;;30.43;21.60;;;;;;;;;;5008662;28;20461;-38
2023/12/18 05:21:49;;;;;;;31.43;20.17;;;;;;;;;;5016009;28;20441;-38
2023/12/18 05:24:17;;;;;;;28.27;21.40;;;;;;;;;;5015640;28;20437;-39
2023/12/18 05:26:45;;;;;;;36.73;22.03;;;;;;;;;;5015967;28;20457;-40
2023/12/18 05:29:13;;;;;;;36.53;20.87;;;;;;;;;;5015913;28;20555;-38
2023/12/18 05:31:40;;;;;;;30.10;21.33;;;;;;;;;;5016268;28;20487;-38
2023/12/18 05:34:09;;;;;;;25.10;20.80;;;;;;;;;;5016949;28;20444;-38
2023/12/18 05:36:37;;;;;;;34.47;23.00;;;;;;;;;;5016948;28;20472;-39
2023/12/18 05:39:05;;;;;;;35.63;20.90;;;;;;;;;;5006617;28;21140;-38
2023/12/18 05:41:32;;;;;;;34.27;21.53;;;;;;;;;;4996813;28;20434;-38
2023/12/18 05:44:00;;;;;;;28.87;21.43;;;;;;;;;;4997683;28;20426;-38
2023/12/18 05:46:28;;;;;;;35.60;20.90;;;;;;;;;;4996916;28;20531;-38
2023/12/18 05:48:55;;;;;;;31.30;21.73;;;;;;;;;;5004925;28;20996;-38
2023/12/18 05:51:25;;;;;;;30.73;20.63;;;;;;;;;;5016476;28;20433;-38
2023/12/18 05:53:52;;;;;;;30.80;21.10;;;;;;;;;;5016819;28;20525;-38
2023/12/18 05:56:20;;;;;;;37.50;21.40;;;;;;;;;;5016469;28;20833;-38
2023/12/18 05:58:47;;;;;;;35.77;21.93;;;;;;;;;;5007239;28;21016;-40
2023/12/18 06:01:15;;;;;;;37.17;21.63;;;;;;;;;;4995865;28;20505;-38
2023/12/18 06:03:43;;;;;;;32.27;21.80;;;;;;;;;;4996210;28;20910;-38
2023/12/18 06:06:11;;;;;;;47.77;23.10;;;;;;;;;;4995775;28;20477;-38
2023/12/18 06:08:40;;;;;;;43.67;22.90;;;;;;;;;;5001852;28;20465;-38
2023/12/18 06:11:08;;;;;;;37.07;22.63;;;;;;;;;;5014303;28;20475;-40
2023/12/18 06:13:35;;;;;;;24.37;20.80;;;;;;;;;;5016115;28;20437;-38
2023/12/18 06:16:03;;;;;;;36.37;22.27;;;;;;;;;;5015371;28;20471;-40
2023/12/18 06:18:30;;;;;;;32.03;23.20;;;;;;;;;;5009554;28;20462;-38
2023/12/18 06:21:02;;;;;;;27.13;21.30;;;;;;;;;;4996310;28;20438;-38
2023/12/18 06:23:30;;;;;;;34.20;21.83;;;;;;;;;;4995486;28;20963;-39
2023/12/18 06:25:59;;;;;;;25.77;21.50;;;;;;;;;;4996013;28;20484;-40
2023/12/18 06:28:30;;;;;;;42.93;23.13;;;;;;;;;;5001533;28;20532;-38
2023/12/18 06:30:58;;;;;;;32.40;22.93;;;;;;;;;;5014881;28;20561;-39
2023/12/18 06:33:26;;;;;;;39.63;22.73;;;;;;;;;;5015677;28;20520;-38
2023/12/18 06:35:54;;;;;;;30.00;22.67;;;;;;;;;;5015321;28;20968;-40
2023/12/18 06:38:22;;;;;;;31.47;21.63;;;;;;;;;;5010624;28;21013;-38
2023/12/18 06:40:49;;;;;;;28.77;22.80;;;;;;;;;;4996104;28;20473;-38
2023/12/18 06:43:18;;;;;;;28.33;21.27;;;;;;;;;;4996147;28;20529;-38
2023/12/18 06:45:46;;;;;;;22.87;20.20;;;;;;;;;;4995440;28;20826;-38
2023/12/18 06:48:14;;;;;;;40.30;24.07;;;;;;;;;;4997920;28;20522;-38
2023/12/18 06:50:42;;;;;;;27.90;20.53;;;;;;;;;;5016469;28;20460;-38
2023/12/18 06:53:09;;;;;;;30.00;22.13;;;;;;;;;;5016998;28;20433;-40
2023/12/18 06:55:38;;;;;;;40.90;22.97;;;;;;;;;;5017966;28;20449;-39
2023/12/18 06:58:06;;;;;;;29.50;21.70;;;;;;;;;;5012546;28;20884;-38
2023/12/18 07:00:35;;;;;;;33.40;22.03;;;;;;;;;;4997414;28;20473;-38
2023/12/18 07:03:08;;;;;;;31.87;22.50;;;;;;;;;;4989580;28;20473;-41
2023/12/18 07:05:36;;;;;;;26.97;22.47;;;;;;;;;;4996985;28;20442;-38
2023/12/18 07:08:04;;;;;;;22.97;20.50;;;;;;;;;;4998268;28;20529;-39
2023/12/18 07:10:31;;;;;;;32.93;21.50;;;;;;;;;;5014235;28;20443;-39
2023/12/18 07:12:59;;;;;;;23.33;21.13;;;;;;;;;;5018519;28;20507;-38
2023/12/18 07:15:26;;;;;;;26.53;23.00;;;;;;;;;;5019428;28;20445;-38
2023/12/18 07:17:58;;;;;;;28.70;22.30;;;;;;;;;;5019168;28;20463;-39
2023/12/18 07:20:26;;;;;;;36.70;23.53;;;;;;;;;;4998693;28;20536;-38
2023/12/18 07:22:54;;;;;;;25.87;23.07;;;;;;;;;;4999501;28;20438;-39
2023/12/18 07:25:21;;;;;;;23.70;21.27;;;;;;;;;;5000295;28;20462;-38
2023/12/18 07:27:49;;;;;;;31.23;21.80;;;;;;;;;;4998483;28;20910;-38
2023/12/18 07:30:17;;;;;;;25.00;21.50;;;;;;;;;;5017971;28;20528;-40
2023/12/18 07:32:45;;;;;;;29.20;21.10;;;;;;;;;;5017230;28;20476;-38
2023/12/18 07:35:14;;;;;;;27.60;20.63;;;;;;;;;;5019448;28;20450;-38
2023/12/18 07:37:42;;;;;;;22.30;19.97;;;;;;;;;;5018878;28;20532;-39
2023/12/18 07:40:10;;;;;;;28.67;21.53;;;;;;;;;;5017818;28;20476;-38
2023/12/18 07:42:37;;;;;;;23.60;21.10;;;;;;;;;;5018412;28;20441;-38
2023/12/18 07:45:05;;;;;;;21.70;19.37;;;;;;;;;;5002766;28;20840;-38
2023/12/18 07:47:33;;;;;;;24.67;20.80;;;;;;;;;;5018499;28;20492;-38
2023/12/18 07:50:01;;;;;;;23.20;20.63;;;;;;;;;;5000130;28;20500;-38
2023/12/18 07:52:30;;;;;;;23.23;20.10;;;;;;;;;;4999320;28;20533;-38
2023/12/18 07:54:58;;;;;;;27.77;20.23;;;;;;;;;;4998693;28;20448;-39
2023/12/18 07:57:25;;;;;;;28.30;20.60;;;;;;;;;;4998949;28;20458;-39
2023/12/18 07:59:54;;;;;;;22.73;20.17;;;;;;;;;;5015166;28;20468;-38
2023/12/18 08:02:22;;;;;;;21.50;19.57;;;;;;;;;;5018461;28;20516;-38
2023/12/18 08:04:50;;;;;;;21.60;19.70;;;;;;;;;;5018481;28;20509;-38
2023/12/18 08:07:18;;;;;;;25.73;21.47;;;;;;;;;;5017540;28;20456;-40
2023/12/18 08:09:47;;;;;;;22.43;20.30;;;;;;;;;;5000669;28;20541;-38
2023/12/18 08:12:15;;;;;;;21.77;19.20;;;;;;;;;;4997020;28;20441;-38
2023/12/18 08:14:44;;;;;;;21.43;19.30;;;;;;;;;;4998378;28;20445;-38
2023/12/18 08:17:12;;;;;;;20.63;18.40;;;;;;;;;;4998061;28;20492;-38
2023/12/18 08:19:39;;;;;;;21.70;19.50;;;;;;;;;;5013511;28;20473;-38
2023/12/18 08:22:07;;;;;;;22.23;20.13;;;;;;;;;;5017193;28;20499;-38
2023/12/18 08:24:34;;;;;;;30.53;18.80;;;;;;;;;;5016351;28;20994;-38
2023/12/18 08:27:04;;;;;;;21.77;18.60;;;;;;;;;;5018558;28;21009;-38
2023/12/18 08:29:31;;;;;;;25.17;19.07;;;;;;;;;;5003535;28;20489;-38
2023/12/18 08:31:59;;;;;;;25.83;18.90;;;;;;;;;;4997892;28;20501;-38
2023/12/18 08:34:26;;;;;;;22.80;20.20;;;;;;;;;;4998719;28;20461;-38
2023/12/18 08:36:54;;;;;;;20.83;18.93;;;;;;;;;;4996888;28;20461;-38
2023/12/18 08:39:22;;;;;;;20.03;18.43;;;;;;;;;;5010116;28;20457;-38
2023/12/18 08:41:50;;;;;;;20.83;18.57;;;;;;;;;;5017575;28;20472;-38
2023/12/18 08:44:19;;;;;;;19.13;17.37;;;;;;;;;;5018586;28;20452;-38
2023/12/18 08:46:47;;;;;;;20.40;18.20;;;;;;;;;;5017691;28;20480;-39
2023/12/18 08:49:15;;;;;;;21.47;19.07;;;;;;;;;;5005247;28;20529;-40
2023/12/18 08:51:43;;;;;;;20.60;18.73;;;;;;;;;;4997473;28;20440;-38
2023/12/18 08:54:11;;;;;;;22.23;19.93;;;;;;;;;;4998235;28;20918;-38
2023/12/18 08:56:38;;;;;;;21.20;19.03;;;;;;;;;;4998190;28;20470;-38
2023/12/18 08:59:06;;;;;;;22.23;19.37;;;;;;;;;;5008829;28;20528;-40
2023/12/18 09:01:38;;;;;;;21.00;19.10;;;;;;;;;;5016492;28;20637;-40
2023/12/18 09:04:06;;;;;;;20.93;19.13;;;;;;;;;;5015837;28;20880;-39
2023/12/18 09:06:36;;;;;;;23.43;19.00;;;;;;;;;;5016519;28;20551;-38
2023/12/18 09:09:05;;;;;;;20.43;18.50;;;;;;;;;;5005083;28;20468;-38
2023/12/18 09:11:33;;;;;;;19.00;17.70;;;;;;;;;;4997139;28;20525;-38
2023/12/18 09:14:03;;;;;;;21.40;18.27;;;;;;;;;;4995242;28;21113;-38
2023/12/18 09:16:30;;;;;;;20.33;18.70;;;;;;;;;;4996883;28;20454;-39
2023/12/18 09:18:59;;;;;;;18.00;16.90;;;;;;;;;;5004562;28;20528;-41
2023/12/18 09:21:27;;;;;;;18.53;17.33;;;;;;;;;;4995435;28;20504;-38
2023/12/18 09:23:55;;;;;;;18.50;16.83;;;;;;;;;;4996093;28;20513;-40
2023/12/18 09:26:22;;;;;;;17.60;16.60;;;;;;;;;;5008501;28;20845;-40
2023/12/18 09:28:50;;;;;;;17.67;16.37;;;;;;;;;;5006650;28;20476;-39
2023/12/18 09:31:18;;;;;;;16.73;15.73;;;;;;;;;;5015789;28;20464;-40
2023/12/18 09:33:46;;;;;;;17.50;16.40;;;;;;;;;;5016108;28;20444;-39
2023/12/18 09:36:15;;;;;;;17.80;16.50;;;;;;;;;;5013370;28;20492;-42
2023/12/18 09:38:43;;;;;;;19.03;17.73;;;;;;;;;;5010049;28;20488;-41
2023/12/18 09:41:10;;;;;;;18.07;17.10;;;;;;;;;;5010055;28;21015;-40
2023/12/18 09:43:38;;;;;;;17.00;16.20;;;;;;;;;;5010209;28;20429;-41
2023/12/18 09:46:06;;;;;;;17.27;16.00;;;;;;;;;;5010168;28;20493;-41
2023/12/18 09:48:36;;;;;;;18.63;17.53;;;;;;;;;;5009324;28;20834;-39
2023/12/18 09:51:08;;;;;;;19.73;18.40;;;;;;;;;;5009525;28;20440;-43
2023/12/18 09:53:37;;;;;;;17.90;16.67;;;;;;;;;;5010910;28;20465;-38
2023/12/18 09:56:05;;;;;;;17.13;16.00;;;;;;;;;;5009410;28;21015;-38
2023/12/18 09:58:33;;;;;;;17.00;15.73;;;;;;;;;;5009384;28;20635;-39
2023/12/18 10:01:01;;;;;;;16.90;15.83;;;;;;;;;;5009346;28;20472;-40
2023/12/18 10:03:28;;;;;;;16.50;15.30;;;;;;;;;;5010039;28;20469;-39
2023/12/18 10:05:56;;;;;;;17.50;16.27;;;;;;;;;;5009056;28;20444;-40
2023/12/18 10:08:24;;;;;;;17.40;16.20;;;;;;;;;;5009367;28;20461;-39
2023/12/18 10:10:53;;;;;;;18.53;17.17;;;;;;;;;;5010165;28;20524;-40
2023/12/18 10:13:20;;;;;;;18.90;17.57;;;;;;;;;;5009682;28;20436;-43
2023/12/18 10:15:48;;;;;;;18.43;17.20;;;;;;;;;;5009594;28;20445;-40
2023/12/18 10:18:16;;;;;;;19.90;18.30;;;;;;;;;;5008630;28;20461;-38
2023/12/18 10:20:48;;;;;;;21.53;19.50;;;;;;;;;;5010190;28;20992;-40
2023/12/18 10:23:16;;;;;;;20.07;18.60;;;;;;;;;;5009569;28;20449;-39
2023/12/18 10:25:43;;;;;;;18.47;17.27;;;;;;;;;;5009264;28;20516;-44
2023/12/18 10:28:13;;;;;;;19.90;18.63;;;;;;;;;;5008366;28;20465;-40
2023/12/18 10:30:40;;;;;;;32.57;20.03;;;;;;;;;;5009713;28;20524;-42
2023/12/18 10:33:09;;;;;;;21.67;19.90;;;;;;;;;;5010088;28;20908;-43
2023/12/18 10:35:39;;;;;;;24.03;21.67;;;;;;;;;;5010059;28;20437;-40
2023/12/18 10:38:09;;;;;;;20.80;19.40;;;;;;;;;;5008843;28;20461;-40
2023/12/18 10:40:37;;;;;;;20.43;18.60;;;;;;;;;;5009590;28;20433;-40
2023/12/18 10:43:13;;;;;;;22.27;18.17;;;;;;;;;;5010304;28;20444;-44
2023/12/18 10:45:41;;;;;;;19.63;18.07;;;;;;;;;;5009852;28;20524;-40
2023/12/18 10:48:10;;;;;;;19.90;18.57;;;;;;;;;;5012949;28;20888;-42
2023/12/18 10:50:37;;;;;;;21.23;19.07;;;;;;;;;;5013028;28;20533;-45
2023/12/18 10:53:05;;;;;;;20.17;18.83;;;;;;;;;;5013410;28;20492;-42
2023/12/18 10:55:36;;;;;;;21.70;20.00;;;;;;;;;;5013780;28;20455;-41
2023/12/18 10:58:05;;;;;;;21.97;20.40;;;;;;;;;;5012429;28;20515;-38
2023/12/18 11:00:34;;;;;;;24.33;22.33;;;;;;;;;;5013991;28;20793;-40
2023/12/18 11:03:02;;;;;;;24.23;22.10;;;;;;;;;;5012882;28;20508;-39
2023/12/18 11:05:32;;;;;;;21.93;20.40;;;;;;;;;;5013239;28;20444;-38
2023/12/18 11:08:00;;;;;;;20.93;19.17;;;;;;;;;;5013665;28;20503;-38
2023/12/18 11:10:28;;;;;;;20.37;19.00;;;;;;;;;;5014444;28;20475;-40
2023/12/18 11:13:02;;;;;;;21.20;19.67;;;;;;;;;;5014666;28;20437;-42
2023/12/18 11:15:35;;;;;;;20.67;19.03;;;;;;;;;;5014286;28;20436;-42
2023/12/18 11:18:10;;;;;;;23.10;21.30;;;;;;;;;;5014255;28;20976;-39
2023/12/18 11:20:40;;;;;;;19.97;18.57;;;;;;;;;;5014872;28;20480;-39
2023/12/18 11:23:10;;;;;;;20.13;18.90;;;;;;;;;;5014648;28;20477;-39
2023/12/18 11:25:39;;;;;;;21.17;19.20;;;;;;;;;;5014518;28;20805;-40
2023/12/18 11:28:07;;;;;;;22.13;20.43;;;;;;;;;;5013979;28;20526;-43
2023/12/18 11:30:35;;;;;;;21.97;20.17;;;;;;;;;;5014401;28;20487;-39
2023/12/18 11:33:03;;;;;;;21.37;19.80;;;;;;;;;;5014703;28;20437;-39
2023/12/18 11:35:33;;;;;;;27.80;21.50;;;;;;;;;;5014358;28;20860;-41
2023/12/18 11:38:05;;;;;;;22.47;20.83;;;;;;;;;;5013982;28;20459;-39
2023/12/18 11:40:34;;;;;;;23.20;21.57;;;;;;;;;;5014483;28;20433;-40
2023/12/18 11:43:02;;;;;;;22.87;21.40;;;;;;;;;;5013689;28;20987;-39
2023/12/18 11:45:29;;;;;;;22.20;20.33;;;;;;;;;;5014405;28;20847;-41
2023/12/18 11:47:59;;;;;;;22.70;21.00;;;;;;;;;;5013672;28;20457;-40
2023/12/18 11:50:27;;;;;;;22.43;20.70;;;;;;;;;;5014352;28;20544;-39
2023/12/18 11:52:56;;;;;;;22.80;21.20;;;;;;;;;;5014079;28;20440;-41
2023/12/18 11:55:43;;;;;;;22.60;21.10;;;;;;;;;;5010472;28;20586;-38
2023/12/18 11:58:15;;;;;;;22.50;20.80;;;;;;;;;;5012941;28;20468;-41
2023/12/18 12:00:43;;;;;;;23.70;21.70;;;;;;;;;;5014122;28;20437;-40
2023/12/18 12:03:11;;;;;;;24.33;22.40;;;;;;;;;;5013596;28;20516;-39
2023/12/18 12:05:39;;;;;;;24.83;22.93;;;;;;;;;;5013716;28;20808;-39
2023/12/18 12:08:08;;;;;;;23.43;21.77;;;;;;;;;;5013203;28;20468;-39
2023/12/18 12:10:40;;;;;;;25.30;23.30;;;;;;;;;;5013957;28;21003;-39
2023/12/18 12:13:07;;;;;;;23.40;21.43;;;;;;;;;;5013742;28;20469;-39
2023/12/18 12:15:35;;;;;;;27.90;25.23;;;;;;;;;;5013593;28;20465;-40
2023/12/18 12:18:04;;;;;;;24.37;22.60;;;;;;;;;;5012944;28;20468;-40
2023/12/18 12:20:31;;;;;;;24.53;22.73;;;;;;;;;;5013207;28;20525;-40
2023/12/18 12:23:00;;;;;;;25.47;23.30;;;;;;;;;;5013649;28;20500;-39
2023/12/18 12:25:29;;;;;;;26.63;24.43;;;;;;;;;;5013410;28;20461;-39
2023/12/18 12:27:57;;;;;;;26.17;24.00;;;;;;;;;;5012875;28;20457;-39
2023/12/18 12:30:24;;;;;;;26.30;24.17;;;;;;;;;;5013498;28;20457;-38
2023/12/18 12:32:52;;;;;;;26.97;24.97;;;;;;;;;;5013252;28;20520;-40
2023/12/18 12:35:20;;;;;;;27.00;24.70;;;;;;;;;;5013101;28;20472;-40
2023/12/18 12:37:48;;;;;;;27.30;24.80;;;;;;;;;;5012997;28;20477;-39
2023/12/18 12:40:16;;;;;;;28.30;25.73;;;;;;;;;;5013235;28;20445;-38
2023/12/18 12:42:45;;;;;;;25.53;23.60;;;;;;;;;;5009820;28;20487;-40
2023/12/18 12:45:12;;;;;;;26.83;24.83;;;;;;;;;;5005455;28;20438;-41
2023/12/18 12:47:41;;;;;;;25.80;23.70;;;;;;;;;;5011727;28;20461;-42
2023/12/18 12:50:10;;;;;;;24.70;22.80;;;;;;;;;;5012674;28;20580;-39
2023/12/18 12:52:42;;;;;;;25.17;23.30;;;;;;;;;;5013359;28;20433;-43
2023/12/18 12:55:09;;;;;;;26.10;24.00;;;;;;;;;;5012876;28;20476;-39
2023/12/18 12:57:37;;;;;;;27.60;25.07;;;;;;;;;;5012887;28;20828;-39
2023/12/18 13:00:08;;;;;;;27.50;25.30;;;;;;;;;;5012329;28;20469;-38
2023/12/18 13:02:36;;;;;;;27.80;25.50;;;;;;;;;;5011834;28;20980;-39
2023/12/18 13:05:08;;;;;;;26.97;25.00;;;;;;;;;;5009814;28;20449;-39
2023/12/18 13:07:36;;;;;;;25.37;23.53;;;;;;;;;;5011707;28;20467;-38
2023/12/18 13:10:04;;;;;;;26.70;24.50;;;;;;;;;;5011677;28;21163;-39
2023/12/18 13:12:32;;;;;;;26.57;24.47;;;;;;;;;;5012798;28;20841;-39
2023/12/18 13:15:00;;;;;;;27.77;25.30;;;;;;;;;;5012837;28;20873;-40
2023/12/18 13:17:28;;;;;;;28.37;25.77;;;;;;;;;;5012495;28;20457;-40
2023/12/18 13:19:56;;;;;;;28.43;25.67;;;;;;;;;;5011829;28;20545;-41
2023/12/18 13:22:29;;;;;;;29.07;26.47;;;;;;;;;;5012202;28;20885;-39
2023/12/18 13:24:57;;;;;;;29.80;27.13;;;;;;;;;;5012315;28;20433;-40
2023/12/18 13:27:26;;;;;;;27.17;25.07;;;;;;;;;;5012033;28;20461;-39
2023/12/18 13:29:53;;;;;;;28.83;26.30;;;;;;;;;;5011776;28;20467;-41
2023/12/18 13:32:24;;;;;;;28.90;26.70;;;;;;;;;;5012289;28;20441;-39
2023/12/18 13:34:53;;;;;;;28.97;26.50;;;;;;;;;;5012459;28;20502;-41
2023/12/18 13:37:20;;;;;;;27.40;25.03;;;;;;;;;;5012267;28;20457;-45
2023/12/18 13:39:48;;;;;;;29.13;26.53;;;;;;;;;;5011652;28;20461;-40
2023/12/18 13:42:16;;;;;;;29.00;26.30;;;;;;;;;;5011556;28;20441;-38
2023/12/18 13:44:44;;;;;;;28.60;25.80;;;;;;;;;;5011099;28;20848;-40
2023/12/18 13:47:14;;;;;;;27.53;25.00;;;;;;;;;;5011417;28;20907;-39
2023/12/18 13:49:42;;;;;;;27.97;25.37;;;;;;;;;;5010252;28;20475;-39
2023/12/18 13:52:11;;;;;;;27.93;25.67;;;;;;;;;;5011774;28;20437;-39
2023/12/18 13:54:38;;;;;;;28.33;25.93;;;;;;;;;;5012202;28;20833;-42
2023/12/18 13:57:06;;;;;;;29.10;26.50;;;;;;;;;;5011888;28;20544;-41
2023/12/18 13:59:33;;;;;;;28.93;26.47;;;;;;;;;;5011424;28;21010;-41
2023/12/18 14:02:01;;;;;;;29.20;26.70;;;;;;;;;;5011860;28;20527;-41
2023/12/18 14:04:29;;;;;;;30.43;27.77;;;;;;;;;;5011751;28;20473;-39
2023/12/18 14:06:57;;;;;;;31.63;28.87;;;;;;;;;;5011154;28;20449;-41
2023/12/18 14:09:25;;;;;;;32.50;29.10;;;;;;;;;;5010958;28;21082;-41
2023/12/18 14:11:54;;;;;;;32.13;29.13;;;;;;;;;;5011690;28;20532;-39
2023/12/18 14:14:22;;;;;;;36.30;32.70;;;;;;;;;;5011701;28;20513;-38
2023/12/18 14:16:50;;;;;;;35.53;30.67;;;;;;;;;;5006081;28;20469;-39
2023/12/18 14:19:18;;;;;;;38.00;32.67;;;;;;;;;;5009688;28;20469;-40
2023/12/18 14:21:45;;;;;;;36.87;32.23;;;;;;;;;;5010942;28;20853;-40